createdAt,value
2019-06-07T00:00:53.669Z,78.05
2019-06-07T00:03:27.451Z,78.10
2019-06-07T00:05:50.724Z,78.06
2019-06-07T00:08:24.851Z,78.13
2019-06-07T00:10:45.195Z,78.15
2019-06-07T00:13:12.909Z,77.52
2019-06-07T00:15:39.785Z,77.26
2019-06-07T00:18:10.248Z,77.65
2019-06-07T00:20:34.280Z,77.88
2019-06-07T00:23:00.562Z,77.54
2019-06-07T00:25:26.777Z,77.68
2019-06-07T00:27:53.079Z,77.77
2019-06-07T00:30:37.626Z,78.31
2019-06-07T00:32:47.732Z,78.94
2019-06-07T00:35:15.383Z,78.86
2019-06-07T00:37:42.383Z,79.19
2019-06-07T00:40:16.178Z,79.16
2019-06-07T00:42:37.154Z,79.20
2019-06-07T00:45:07.182Z,79.36
2019-06-07T00:47:33.293Z,79.06
2019-06-07T00:49:59.554Z,78.70
2019-06-07T00:54:53.989Z,78.43
2019-06-07T00:57:22.224Z,78.78
2019-06-07T00:59:48.460Z,78.37
2019-06-07T01:02:16.678Z,78.91
2019-06-07T01:04:42.794Z,78.61
2019-06-07T01:07:08.900Z,78.64
2019-06-07T01:09:35.041Z,78.60
2019-06-07T01:12:01.256Z,78.75
2019-06-07T01:14:28.692Z,78.83
2019-06-07T01:17:01.488Z,78.53
2019-06-07T01:19:26.420Z,77.99
2019-06-07T01:21:51.660Z,78.05
2019-06-07T01:24:17.864Z,77.61
2019-06-07T01:26:44.102Z,76.96
2019-06-07T01:29:10.322Z,77.68
2019-06-07T01:31:36.695Z,78.24
2019-06-07T01:34:03.025Z,78.62
2019-06-07T01:36:31.006Z,78.62
2019-06-07T01:38:57.475Z,78.72
2019-06-07T01:41:25.902Z,78.69
2019-06-07T01:43:51.717Z,78.72
2019-06-07T01:46:18.212Z,78.61
2019-06-07T01:48:49.398Z,79.02
2019-06-07T01:51:13.085Z,79.71
2019-06-07T01:53:39.187Z,79.62
2019-06-07T01:56:05.468Z,79.33
2019-06-07T01:58:31.554Z,79.05
2019-06-07T02:00:57.668Z,78.42
2019-06-07T02:03:28.086Z,78.06
2019-06-07T02:05:51.983Z,77.44
2019-06-07T02:08:20.042Z,77.61
2019-06-07T02:10:46.178Z,77.64
2019-06-07T02:13:13.423Z,77.52
2019-06-07T02:15:39.648Z,77.76
2019-06-07T02:18:05.982Z,77.46
2019-06-07T02:20:34.512Z,77.51
2019-06-07T02:23:00.104Z,77.67
2019-06-07T02:25:49.584Z,78.01
2019-06-07T02:28:11.102Z,77.55
2019-06-07T02:30:47.078Z,77.92
2019-06-07T02:32:50.402Z,78.52
2019-06-07T02:35:16.808Z,78.49
2019-06-07T02:37:43.028Z,78.40
2019-06-07T02:40:12.360Z,79.53
2019-06-07T02:42:42.672Z,79.33
2019-06-07T02:45:07.923Z,78.59
2019-06-07T02:47:37.677Z,78.39
2019-06-07T02:50:06.558Z,78.12
2019-06-07T02:52:38.694Z,78.10
2019-06-07T02:55:00.753Z,78.42
2019-06-07T02:57:29.298Z,79.07
2019-06-07T03:00:16.569Z,80.25
2019-06-07T03:02:25.552Z,79.49
2019-06-07T03:04:51.492Z,79.57
2019-06-07T03:07:18.343Z,80.20
2019-06-07T03:09:45.358Z,80.80
2019-06-07T03:12:12.347Z,80.79
2019-06-07T03:14:39.593Z,80.77
2019-06-07T03:17:19.850Z,80.37
2019-06-07T03:19:48.898Z,80.26
2019-06-07T03:22:15.228Z,80.60
2019-06-07T03:24:44.168Z,80.51
2019-06-07T03:27:34.020Z,80.06
2019-06-07T03:29:41.367Z,80.20
2019-06-07T03:32:07.824Z,80.07
2019-06-07T03:34:39.275Z,80.62
2019-06-07T03:37:02.389Z,80.62
2019-06-07T03:39:29.656Z,80.29
2019-06-07T03:42:06.398Z,81.28
2019-06-07T03:44:25.252Z,81.28
2019-06-07T03:46:51.388Z,80.91
2019-06-07T03:49:17.504Z,80.38
2019-06-07T03:51:44.757Z,80.23
2019-06-07T03:54:10.932Z,80.31
2019-06-07T03:56:38.627Z,79.83
2019-06-07T03:59:05.359Z,78.68
2019-06-07T04:01:32.342Z,78.94
2019-06-07T04:03:59.061Z,79.20
2019-06-07T04:06:25.195Z,79.36
2019-06-07T04:08:51.586Z,79.49
2019-06-07T04:11:17.679Z,79.46
2019-06-07T04:13:43.894Z,79.42
2019-06-07T04:16:10.308Z,78.36
2019-06-07T04:18:40.868Z,78.36
2019-06-07T04:21:04.633Z,77.74
2019-06-07T04:23:33.130Z,77.24
2019-06-07T04:25:59.114Z,77.18
2019-06-07T04:29:15.617Z,76.81
2019-06-07T04:30:53.333Z,77.06
2019-06-07T04:33:20.580Z,76.77
2019-06-07T04:35:47.022Z,76.68
2019-06-07T04:38:14.084Z,76.98
2019-06-07T04:40:43.933Z,77.09
2019-06-07T04:43:11.250Z,76.38
2019-06-07T04:45:45.867Z,76.18
2019-06-07T04:48:06.408Z,75.95
2019-06-07T04:50:34.302Z,75.45
2019-06-07T04:53:03.332Z,74.74
2019-06-07T04:55:29.646Z,73.94
2019-06-07T04:57:57.096Z,74.13
2019-06-07T05:02:57.983Z,73.47
2019-06-07T05:05:24.487Z,73.66
2019-06-07T05:07:50.580Z,73.13
2019-06-07T05:10:16.693Z,71.91
2019-06-07T05:12:44.189Z,72.19
2019-06-07T05:15:10.930Z,72.12
2019-06-07T05:17:39.933Z,71.99
2019-06-07T05:20:05.644Z,70.67
2019-06-07T05:22:34.923Z,71.22
2019-06-07T05:24:59.882Z,71.18
2019-06-07T05:27:26.157Z,70.80
2019-06-07T05:30:09.517Z,71.20
2019-06-07T05:32:20.564Z,71.20
2019-06-07T05:34:47.549Z,71.50
2019-06-07T05:37:13.917Z,70.52
2019-06-07T05:39:43.260Z,69.83
2019-06-07T05:42:08.259Z,70.46
2019-06-07T05:44:36.371Z,70.01
2019-06-07T05:47:02.908Z,69.03
2019-06-07T05:49:29.231Z,68.27
2019-06-07T05:51:55.471Z,68.01
2019-06-07T05:54:21.679Z,67.63
2019-06-07T05:56:48.998Z,68.51
2019-06-07T05:59:15.495Z,67.99
2019-06-07T06:01:48.021Z,67.14
2019-06-07T06:04:09.877Z,66.12
2019-06-07T06:06:36.407Z,65.77
2019-06-07T06:10:10.748Z,64.73
2019-06-07T06:12:40.831Z,63.66
2019-06-07T06:15:06.307Z,64.10
2019-06-07T06:17:32.394Z,64.14
2019-06-07T06:19:58.768Z,63.96
2019-06-07T06:22:24.911Z,63.94
2019-06-07T06:25:29.703Z,63.31
2019-06-07T06:28:02.582Z,62.03
2019-06-07T06:29:50.420Z,62.04
2019-06-07T06:32:41.073Z,61.99
2019-06-07T06:34:47.090Z,61.62
2019-06-07T06:37:11.960Z,61.47
2019-06-07T06:39:39.466Z,60.55
2019-06-07T06:42:05.630Z,60.35
2019-06-07T06:44:31.713Z,59.99
2019-06-07T06:46:58.652Z,60.23
2019-06-07T06:49:24.808Z,60.22
2019-06-07T06:51:53.630Z,59.78
2019-06-07T06:54:39.486Z,59.68
2019-06-07T06:56:47.600Z,59.00
2019-06-07T06:59:38.047Z,59.11
2019-06-07T07:01:45.140Z,59.03
2019-06-07T07:04:13.586Z,59.52
2019-06-07T07:06:41.497Z,58.40
2019-06-07T07:09:08.354Z,59.22
2019-06-07T07:11:52.241Z,59.44
2019-06-07T07:14:03.382Z,58.50
2019-06-07T07:16:29.484Z,57.68
2019-06-07T07:18:55.551Z,58.58
2019-06-07T07:21:21.632Z,57.72
2019-06-07T07:24:15.153Z,58.94
2019-06-07T07:26:15.767Z,59.59
2019-06-07T07:28:43.074Z,58.69
2019-06-07T07:31:09.966Z,58.77
2019-06-07T07:36:22.684Z,56.68
2019-06-07T07:38:32.398Z,56.31
2019-06-07T07:41:14.677Z,57.32
2019-06-07T07:43:26.567Z,57.13
2019-06-07T07:45:59.242Z,57.39
2019-06-07T07:48:20.878Z,57.02
2019-06-07T07:50:49.893Z,54.94
2019-06-07T07:53:15.208Z,55.94
2019-06-07T07:55:41.337Z,54.87
2019-06-07T07:58:07.528Z,54.97
2019-06-07T08:00:52.234Z,55.44
2019-06-07T08:03:04.486Z,53.90
2019-06-07T08:05:42.475Z,53.76
2019-06-07T08:08:01.586Z,54.17
2019-06-07T08:10:27.217Z,54.98
2019-06-07T08:13:16.282Z,52.78
2019-06-07T08:15:21.607Z,54.73
2019-06-07T08:17:50.748Z,53.75
2019-06-07T08:20:16.283Z,53.62
2019-06-07T08:22:42.601Z,54.58
2019-06-07T08:25:09.440Z,55.09
2019-06-07T08:27:35.737Z,54.42
2019-06-07T08:30:35.446Z,53.77
2019-06-07T08:32:35.830Z,54.10
2019-06-07T08:35:06.956Z,53.65
2019-06-07T08:38:14.048Z,53.19
2019-06-07T08:40:06.225Z,53.49
2019-06-07T08:42:37.540Z,53.93
2019-06-07T08:45:03.646Z,53.44
2019-06-07T08:47:28.663Z,53.37
2019-06-07T08:49:59.303Z,52.01
2019-06-07T08:52:22.862Z,50.81
2019-06-07T08:54:49.059Z,52.58
2019-06-07T08:57:21.397Z,51.92
2019-06-07T08:59:44.209Z,51.20
2019-06-07T09:02:23.215Z,51.34
2019-06-07T09:04:38.501Z,51.04
2019-06-07T09:07:18.435Z,49.12
2019-06-07T09:09:32.826Z,49.99
2019-06-07T09:12:03.233Z,48.83
2019-06-07T09:14:27.116Z,48.73
2019-06-07T09:16:58.792Z,48.89
2019-06-07T09:19:21.338Z,48.37
2019-06-07T09:21:47.457Z,48.75
2019-06-07T09:24:13.540Z,48.42
2019-06-07T09:26:39.818Z,48.65
2019-06-07T09:29:09.469Z,47.24
2019-06-07T09:31:51.889Z,46.62
2019-06-07T09:34:06.628Z,47.33
2019-06-07T09:36:30.333Z,46.45
2019-06-07T09:38:58.834Z,48.64
2019-06-07T09:41:46.177Z,48.27
2019-06-07T09:44:04.740Z,47.36
2019-06-07T09:46:20.735Z,46.62
2019-06-07T09:49:10.743Z,48.42
2019-06-07T09:51:19.839Z,49.34
2019-06-07T09:53:43.116Z,48.65
2019-06-07T09:56:12.043Z,49.85
2019-06-07T09:58:54.210Z,47.73
2019-06-07T10:01:12.222Z,46.00
2019-06-07T10:03:33.404Z,47.67
2019-06-07T10:06:00.413Z,47.96
2019-06-07T10:09:42.405Z,47.14
2019-06-07T10:10:55.663Z,48.45
2019-06-07T10:13:21.869Z,46.62
2019-06-07T10:15:47.958Z,46.12
2019-06-07T10:18:14.153Z,46.66
2019-06-07T10:20:40.366Z,48.18
2019-06-07T10:23:07.980Z,47.87
2019-06-07T10:25:34.751Z,49.38
2019-06-07T10:28:01.949Z,46.97
2019-06-07T10:30:28.048Z,45.40
2019-06-07T10:32:54.440Z,45.55
2019-06-07T10:35:20.639Z,44.83
2019-06-07T10:37:47.850Z,46.14
2019-06-07T10:40:14.661Z,45.62
2019-06-07T10:42:40.749Z,44.46
2019-06-07T10:45:08.287Z,45.90
2019-06-07T10:47:35.745Z,44.70
2019-06-07T10:50:03.792Z,45.41
2019-06-07T10:52:31.177Z,44.97
2019-06-07T10:54:57.575Z,44.55
2019-06-07T10:57:23.657Z,45.47
2019-06-07T10:59:49.851Z,44.88
2019-06-07T11:02:16.592Z,46.20
2019-06-07T11:04:42.794Z,45.27
2019-06-07T11:07:10.113Z,46.43
2019-06-07T11:09:36.507Z,46.39
2019-06-07T11:12:04.237Z,44.90
2019-06-07T11:14:30.719Z,44.27
2019-06-07T11:16:57.060Z,43.87
2019-06-07T11:19:23.160Z,42.88
2019-06-07T11:21:49.620Z,42.80
2019-06-07T11:24:18.713Z,42.82
2019-06-07T11:26:44.287Z,42.68
2019-06-07T11:29:11.044Z,42.74
2019-06-07T11:31:38.655Z,42.65
2019-06-07T11:34:06.262Z,42.47
2019-06-07T11:36:32.601Z,43.13
2019-06-07T11:38:58.803Z,43.26
2019-06-07T11:41:25.002Z,41.98
2019-06-07T11:43:51.215Z,41.16
2019-06-07T11:46:17.398Z,41.41
2019-06-07T11:48:43.585Z,42.46
2019-06-07T11:51:10.802Z,41.47
2019-06-07T11:53:37.130Z,41.40
2019-06-07T11:56:03.419Z,40.91
2019-06-07T11:58:29.633Z,41.50
2019-06-07T12:00:56.062Z,41.55
2019-06-07T12:03:22.258Z,41.33
2019-06-07T12:05:48.359Z,39.59
2019-06-07T12:08:14.451Z,39.90
2019-06-07T12:10:42.748Z,40.41
2019-06-07T12:13:10.364Z,40.20
2019-06-07T12:15:36.582Z,39.52
2019-06-07T12:18:02.841Z,40.21
2019-06-07T12:20:29.073Z,39.62
2019-06-07T12:22:55.285Z,41.30
2019-06-07T12:25:25.000Z,41.16
2019-06-07T12:27:49.505Z,40.90
2019-06-07T12:30:23.495Z,41.25
2019-06-07T12:32:44.320Z,39.60
2019-06-07T12:35:11.496Z,39.14
2019-06-07T12:37:44.599Z,37.75
2019-06-07T12:40:07.113Z,37.95
2019-06-07T12:42:33.328Z,40.24
2019-06-07T12:44:59.429Z,38.50
2019-06-07T12:47:25.609Z,39.71
2019-06-07T12:49:51.708Z,39.42
2019-06-07T12:52:20.059Z,38.50
2019-06-07T12:54:46.127Z,38.76
2019-06-07T12:57:13.700Z,37.99
2019-06-07T12:59:40.292Z,37.88
2019-06-07T13:02:06.696Z,37.99
2019-06-07T13:04:33.018Z,38.53
2019-06-07T13:06:59.314Z,37.43
2019-06-07T13:09:25.508Z,38.45
2019-06-07T13:11:51.706Z,37.69
2019-06-07T13:14:18.048Z,37.65
2019-06-07T13:16:44.261Z,37.56
2019-06-07T13:19:10.406Z,37.10
2019-06-07T13:21:36.632Z,37.15
2019-06-07T13:24:03.055Z,36.94
2019-06-07T13:26:29.126Z,37.32
2019-06-07T13:28:55.240Z,37.85
2019-06-07T13:31:23.451Z,36.22
2019-06-07T13:33:49.781Z,36.73
2019-06-07T13:36:16.090Z,36.99
2019-06-07T13:38:42.227Z,38.21
2019-06-07T13:41:08.541Z,38.54
2019-06-07T13:43:35.772Z,39.45
2019-06-07T13:46:03.064Z,40.36
2019-06-07T13:48:29.138Z,40.54
2019-06-07T13:50:55.378Z,40.12
2019-06-07T13:53:22.721Z,38.72
2019-06-07T13:55:49.052Z,39.09
2019-06-07T13:58:15.256Z,39.09
2019-06-07T14:00:42.541Z,39.09
2019-06-07T14:03:08.950Z,39.71
2019-06-07T14:05:35.152Z,41.18
2019-06-07T14:08:01.333Z,41.40
2019-06-07T14:10:27.631Z,40.79
2019-06-07T14:12:53.889Z,40.30
2019-06-07T14:15:20.578Z,40.61
2019-06-07T14:17:47.035Z,39.98
2019-06-07T14:20:13.620Z,40.78
2019-06-07T14:22:39.999Z,40.02
2019-06-07T14:25:08.339Z,40.01
2019-06-07T14:27:34.557Z,40.99
2019-06-07T14:30:00.646Z,41.12
2019-06-07T14:32:26.870Z,41.54
2019-06-07T14:34:52.963Z,40.56
2019-06-07T14:37:19.032Z,39.92
2019-06-07T14:39:46.315Z,41.16
2019-06-07T14:42:12.444Z,41.86
2019-06-07T14:44:38.644Z,41.08
2019-06-07T14:47:04.835Z,40.65
2019-06-07T14:49:32.528Z,40.21
2019-06-07T14:51:58.853Z,41.21
2019-06-07T14:54:25.060Z,40.44
2019-06-07T14:56:51.274Z,40.66
2019-06-07T14:59:17.584Z,39.97
2019-06-07T15:01:43.693Z,41.71
2019-06-07T15:04:09.941Z,41.60
2019-06-07T15:06:36.160Z,41.37
2019-06-07T15:09:05.377Z,42.37
2019-06-07T15:11:33.035Z,42.23
2019-06-07T15:13:59.258Z,41.13
2019-06-07T15:16:25.475Z,40.20
2019-06-07T15:18:51.792Z,40.46
2019-06-07T15:21:17.998Z,40.30
2019-06-07T15:23:44.512Z,39.60
2019-06-07T15:26:10.799Z,40.13
2019-06-07T15:28:38.481Z,41.60
2019-06-07T15:31:04.810Z,42.77
2019-06-07T15:33:31.829Z,41.96
2019-06-07T15:35:58.015Z,41.75
2019-06-07T15:38:24.108Z,41.17
2019-06-07T15:40:50.204Z,41.67
2019-06-07T15:43:16.331Z,41.78
2019-06-07T15:45:43.248Z,41.15
2019-06-07T15:48:09.358Z,40.52
2019-06-07T15:50:36.148Z,40.54
2019-06-07T15:53:02.526Z,41.23
2019-06-07T15:55:28.592Z,41.66
2019-06-07T15:57:54.925Z,41.87
2019-06-07T16:00:21.329Z,41.67
2019-06-07T16:02:47.389Z,42.00
2019-06-07T16:05:14.480Z,42.07
2019-06-07T16:07:40.765Z,43.07
2019-06-07T16:10:07.739Z,42.97
2019-06-07T16:12:34.577Z,43.06
2019-06-07T16:15:00.749Z,42.93
2019-06-07T16:17:27.082Z,43.18
2019-06-07T16:19:53.415Z,43.63
2019-06-07T16:22:19.576Z,43.94
2019-06-07T16:24:45.805Z,43.98
2019-06-07T16:27:12.126Z,43.94
2019-06-07T16:29:38.592Z,43.73
2019-06-07T16:32:04.814Z,43.80
2019-06-07T16:34:31.186Z,43.85
2019-06-07T16:36:57.263Z,43.96
2019-06-07T16:39:23.603Z,45.18
2019-06-07T16:41:49.802Z,44.28
2019-06-07T16:44:15.914Z,44.23
2019-06-07T16:46:42.915Z,44.48
2019-06-07T16:49:09.153Z,44.45
2019-06-07T16:51:35.368Z,43.52
2019-06-07T16:54:01.791Z,43.64
2019-06-07T16:56:28.297Z,43.68
2019-06-07T16:58:54.645Z,43.64
2019-06-07T17:01:20.845Z,44.29
2019-06-07T17:03:47.615Z,44.24
2019-06-07T17:06:13.983Z,44.47
2019-06-07T17:08:40.283Z,44.34
2019-06-07T17:11:06.589Z,44.51
2019-06-07T17:13:33.953Z,44.99
2019-06-07T17:16:00.456Z,44.86
2019-06-07T17:18:26.661Z,44.88
2019-06-07T17:20:52.784Z,45.28
2019-06-07T17:23:18.870Z,45.06
2019-06-07T17:25:45.438Z,45.43
2019-06-07T17:28:12.376Z,45.55
2019-06-07T17:30:39.780Z,45.75
2019-06-07T17:33:06.328Z,46.07
2019-06-07T17:35:32.548Z,45.93
2019-06-07T17:37:58.873Z,45.83
2019-06-07T17:40:25.079Z,46.61
2019-06-07T17:42:51.333Z,46.20
2019-06-07T17:45:19.737Z,46.54
2019-06-07T17:47:46.071Z,47.86
2019-06-07T17:50:14.411Z,47.66
2019-06-07T17:52:41.786Z,47.27
2019-06-07T17:55:09.928Z,47.15
2019-06-07T17:57:36.319Z,47.78
2019-06-07T18:00:27.726Z,48.17
2019-06-07T18:02:35.613Z,48.31
2019-06-07T18:05:02.408Z,50.08
2019-06-07T18:07:29.829Z,52.08
2019-06-07T18:09:56.526Z,52.62
2019-06-07T18:12:22.826Z,62.42
2019-06-07T18:14:49.994Z,74.98
2019-06-07T18:17:16.307Z,80.32
2019-06-07T18:19:43.319Z,83.72
2019-06-07T18:22:10.796Z,82.88
2019-06-07T18:24:37.024Z,81.04
2019-06-07T18:27:06.867Z,81.75
2019-06-07T18:29:31.544Z,82.90
2019-06-07T18:32:00.204Z,82.43
2019-06-07T18:34:25.761Z,79.04
2019-06-07T18:36:53.123Z,76.28
2019-06-07T18:39:19.289Z,75.13
2019-06-07T18:41:45.505Z,73.66
2019-06-07T18:44:21.237Z,73.34
2019-06-07T18:46:40.029Z,72.68
2019-06-07T18:49:06.265Z,73.26
2019-06-07T18:51:32.495Z,75.76
2019-06-07T18:53:58.659Z,74.66
2019-06-07T18:56:25.725Z,74.42
2019-06-07T18:58:53.079Z,74.75
2019-06-07T19:01:19.584Z,77.05
2019-06-07T19:03:47.144Z,77.81
2019-06-07T19:06:14.114Z,74.17
2019-06-07T19:08:40.377Z,74.77
2019-06-07T19:11:07.672Z,75.92
2019-06-07T19:13:33.871Z,73.73
2019-06-07T19:16:00.071Z,74.18
2019-06-07T19:18:26.316Z,73.21
2019-06-07T19:20:54.191Z,73.43
2019-06-07T19:23:20.588Z,72.98
2019-06-07T19:25:46.910Z,71.11
2019-06-07T19:28:13.018Z,71.06
2019-06-07T19:30:39.319Z,71.06
2019-06-07T19:33:05.488Z,69.35
2019-06-07T19:35:31.757Z,70.78
2019-06-07T19:37:58.034Z,70.40
2019-06-07T19:40:24.251Z,70.51
2019-06-07T19:42:52.070Z,71.72
2019-06-07T19:45:34.235Z,68.98
2019-06-07T19:47:47.867Z,70.08
2019-06-07T19:50:14.394Z,69.91
2019-06-07T19:52:40.595Z,70.59
2019-06-07T19:55:09.955Z,70.81
2019-06-07T19:57:36.802Z,71.00
2019-06-07T20:00:13.594Z,74.58
2019-06-07T20:02:34.758Z,70.94
2019-06-07T20:05:04.736Z,71.58
2019-06-07T20:07:30.276Z,71.02
2019-06-07T20:09:56.586Z,71.44
2019-06-07T20:12:23.034Z,71.43
2019-06-07T20:14:49.168Z,71.99
2019-06-07T20:17:15.289Z,71.08
2019-06-07T20:19:41.539Z,72.83
2019-06-07T20:22:07.718Z,74.33
2019-06-07T20:24:33.979Z,72.22
2019-06-07T20:27:02.331Z,72.70
2019-06-07T20:29:30.183Z,73.33
2019-06-07T20:31:56.566Z,72.97
2019-06-07T20:34:22.787Z,74.21
2019-06-07T20:36:48.918Z,73.17
2019-06-07T20:39:15.148Z,74.12
2019-06-07T20:41:41.606Z,74.58
2019-06-07T20:44:08.147Z,73.37
2019-06-07T20:46:34.402Z,72.85
2019-06-07T20:49:02.221Z,72.32
2019-06-07T20:51:28.453Z,73.32
2019-06-07T20:53:54.655Z,72.79
2019-06-07T20:56:24.387Z,74.30
2019-06-07T20:58:49.309Z,73.44
2019-06-07T21:01:15.649Z,71.59
2019-06-07T21:03:41.954Z,69.68
2019-06-07T21:06:08.032Z,71.15
2019-06-07T21:08:34.203Z,71.38
2019-06-07T21:11:01.624Z,70.66
2019-06-07T21:13:28.862Z,71.29
2019-06-07T21:15:55.087Z,73.17
2019-06-07T21:18:21.420Z,74.14
2019-06-07T21:20:47.624Z,71.31
2019-06-07T21:23:13.798Z,68.71
2019-06-07T21:25:39.914Z,69.30
2019-06-07T21:28:07.246Z,68.85
2019-06-07T21:30:33.435Z,67.99
2019-06-07T21:32:59.657Z,69.29
2019-06-07T21:35:25.984Z,68.07
2019-06-07T21:37:52.148Z,67.92
2019-06-07T21:40:18.440Z,67.62
2019-06-07T21:42:44.617Z,67.39
2019-06-07T21:45:11.887Z,68.35
2019-06-07T21:47:38.283Z,67.36
2019-06-07T21:50:06.638Z,67.99
2019-06-07T21:52:32.862Z,68.58
2019-06-07T21:54:58.950Z,69.24
2019-06-07T21:57:25.055Z,71.23
2019-06-07T21:59:51.270Z,67.48
2019-06-07T22:02:17.706Z,67.80
2019-06-07T22:04:43.930Z,67.71
2019-06-07T22:07:11.480Z,68.56
2019-06-07T22:09:37.715Z,68.14
2019-06-07T22:12:04.535Z,67.14
2019-06-07T22:14:31.070Z,67.09
2019-06-07T22:16:57.251Z,66.78
2019-06-07T22:19:23.371Z,67.09
2019-06-07T22:22:02.211Z,66.81
2019-06-07T22:24:17.555Z,66.57
2019-06-07T22:26:43.738Z,66.79
2019-06-07T22:29:10.347Z,66.71
2019-06-07T22:31:36.682Z,66.81
2019-06-07T22:34:03.427Z,66.87
2019-06-07T22:36:29.859Z,66.19
2019-06-07T22:38:55.935Z,66.54
2019-06-07T22:41:23.244Z,66.32
2019-06-07T22:43:49.329Z,66.45
2019-06-07T22:46:15.519Z,66.05
2019-06-07T22:48:41.791Z,66.25
2019-06-07T22:51:11.333Z,66.05
2019-06-07T22:53:38.969Z,66.13
2019-06-07T22:56:07.746Z,65.95
2019-06-07T22:58:34.000Z,65.08
2019-06-07T23:01:00.110Z,64.87
2019-06-07T23:03:26.220Z,64.73
2019-06-07T23:05:52.388Z,64.05
2019-06-07T23:08:19.095Z,64.22
2019-06-07T23:10:45.372Z,63.90
2019-06-07T23:13:11.568Z,63.67
2019-06-07T23:15:37.650Z,63.75
2019-06-07T23:18:03.880Z,63.65
2019-06-07T23:20:31.458Z,63.36
2019-06-07T23:22:57.555Z,63.97
2019-06-07T23:25:24.709Z,62.12
2019-06-07T23:27:51.027Z,62.31
2019-06-07T23:30:21.445Z,61.96
2019-06-07T23:32:47.490Z,62.16
2019-06-07T23:35:14.813Z,61.96
2019-06-07T23:37:41.276Z,61.33
2019-06-07T23:40:07.854Z,61.97
2019-06-07T23:42:33.972Z,62.06
2019-06-07T23:45:00.035Z,62.23
2019-06-07T23:47:26.126Z,61.47
2019-06-07T23:49:52.197Z,62.06
2019-06-07T23:52:18.350Z,61.86
2019-06-07T23:54:44.444Z,61.85
2019-06-07T23:57:12.025Z,62.25
2019-06-07T23:59:38.387Z,62.51
